Time;durP1;ratioP1;P1;durP2;ratioP2;P2;SDS_P1;SDS_P2;PMS_P1;PMS_P2;Temp;Humidity;BMP_temperature;BMP_pressure;BME280_temperature;BME280_humidity;BME280_pressure;Samples;Min_cycle;Max_cycle;Signal;HPM_P1;HPM_P2
2022/11/20 00:00:28;;;;;;;0.00;0.00;;;;;;;6.89;100.00;99854.06;6257466;22;20035;-75
2022/11/20 00:02:55;;;;;;;0.00;0.00;;;;;;;6.82;100.00;99855.09;6203841;22;20268;-76
2022/11/20 00:05:21;;;;;;;0.00;0.00;;;;;;;6.82;100.00;99865.94;6228938;22;20003;-76
2022/11/20 00:07:46;;;;;;;0.03;0.03;;;;;;;6.76;100.00;99845.22;6231737;22;20334;-75
2022/11/20 00:10:15;;;;;;;0.10;0.10;;;;;;;6.82;100.00;99863.22;6255886;22;20288;-74
2022/11/20 00:12:40;;;;;;;0.00;0.00;;;;;;;6.66;100.00;99850.56;6255350;22;20355;-75
2022/11/20 00:15:09;;;;;;;0.00;0.00;;;;;;;6.67;100.00;99852.19;6254488;22;20038;-74
2022/11/20 00:17:35;;;;;;;0.00;0.00;;;;;;;6.66;100.00;99836.97;6281487;22;20083;-75
2022/11/20 00:20:00;;;;;;;0.00;0.00;;;;;;;6.72;100.00;99835.94;6230691;22;20093;-75
2022/11/20 00:22:26;;;;;;;0.70;0.70;;;;;;;6.78;100.00;99834.09;6228892;22;20012;-76
2022/11/20 00:24:51;;;;;;;0.10;0.10;;;;;;;6.74;100.00;99836.50;6252619;22;20012;-75
2022/11/20 00:27:17;;;;;;;0.00;0.00;;;;;;;6.73;100.00;99840.31;6228830;22;20007;-74
2022/11/20 00:29:42;;;;;;;0.00;0.00;;;;;;;6.73;100.00;99834.88;6280608;22;20015;-75
2022/11/20 00:32:08;;;;;;;0.00;0.00;;;;;;;6.72;100.00;99838.66;6255366;22;20003;-75
2022/11/20 00:34:35;;;;;;;0.00;0.00;;;;;;;6.68;100.00;99828.56;6253701;22;20000;-75
2022/11/20 00:41:09;;;;;;;0.00;0.00;;;;;;;6.75;100.00;99821.84;6041581;23;20470;-76
2022/11/20 00:43:36;;;;;;;0.00;0.00;;;;;;;6.66;100.00;99807.09;6018676;23;20046;-75
2022/11/20 00:46:05;;;;;;;0.00;0.00;;;;;;;6.70;100.00;99819.09;6269562;22;20029;-75
2022/11/20 00:48:33;;;;;;;0.00;0.00;;;;;;;6.76;100.00;99815.34;6286211;22;20371;-77
2022/11/20 00:50:59;;;;;;;0.00;0.00;;;;;;;6.81;100.00;99809.94;6288720;22;19991;-76
2022/11/20 00:53:27;;;;;;;0.00;0.00;;;;;;;6.91;100.00;99808.44;6286429;22;20418;-76
2022/11/20 00:55:58;;;;;;;0.00;0.00;;;;;;;6.99;100.00;99814.22;6285123;22;20078;-77
2022/11/20 00:58:31;;;;;;;0.40;0.40;;;;;;;7.06;100.00;99805.84;6287495;22;20053;-79
2022/11/20 01:01:23;;;;;;;0.00;0.00;;;;;;;7.09;100.00;99794.44;6289284;22;19999;-78
2022/11/20 01:03:59;;;;;;;0.00;0.00;;;;;;;7.11;100.00;99797.75;6289833;22;20019;-78
2022/11/20 01:06:28;;;;;;;0.00;0.00;;;;;;;7.12;100.00;99788.47;6315199;22;19999;-79
2022/11/20 01:08:56;;;;;;;0.00;0.00;;;;;;;7.12;100.00;99777.59;6289148;22;19984;-79
2022/11/20 01:11:27;;;;;;;0.00;0.00;;;;;;;7.18;100.00;99781.19;6314950;22;20047;-78
2022/11/20 01:13:54;;;;;;;0.00;0.00;;;;;;;7.15;100.00;99771.69;6286496;22;20033;-76
2022/11/20 01:16:28;;;;;;;0.00;0.00;;;;;;;7.19;100.00;99771.16;6285439;22;20011;-79
2022/11/20 01:18:56;;;;;;;0.00;0.00;;;;;;;7.19;100.00;99776.59;6313514;22;20078;-77
2022/11/20 01:21:28;;;;;;;0.00;0.00;;;;;;;7.20;100.00;99768.19;6284266;22;20007;-77
2022/11/20 01:23:54;;;;;;;0.00;0.00;;;;;;;7.21;100.00;99763.53;6286209;22;20003;-76
2022/11/20 01:26:26;;;;;;;0.10;0.10;;;;;;;7.22;100.00;99770.63;6284742;22;20088;-77
2022/11/20 01:28:53;;;;;;;0.00;0.00;;;;;;;7.26;100.00;99771.75;6284875;22;20000;-77
2022/11/20 01:31:48;;;;;;;0.47;0.45;;;;;;;7.20;100.00;99772.78;6286626;22;20008;-76
2022/11/20 01:34:17;;;;;;;0.00;0.00;;;;;;;7.14;100.00;99758.31;6276130;22;19999;-75
2022/11/20 01:36:43;;;;;;;0.00;0.00;;;;;;;7.04;100.00;99752.78;6284530;22;20058;-75
2022/11/20 01:39:21;;;;;;;0.00;0.00;;;;;;;7.00;100.00;99752.50;6259305;22;20007;-75
2022/11/20 01:45:28;;;;;;;0.00;0.00;;;;;;;6.97;100.00;99748.41;6310786;22;20018;-76
2022/11/20 01:47:54;;;;;;;0.00;0.00;;;;;;;6.94;100.00;99720.94;6156120;22;20007;-77
2022/11/20 01:50:28;;;;;;;0.00;0.00;;;;;;;6.96;100.00;99714.13;6311799;22;20006;-75
2022/11/20 01:52:54;;;;;;;0.00;0.00;;;;;;;7.01;100.00;99721.53;6284758;22;20324;-76
2022/11/20 01:55:23;;;;;;;0.00;0.00;;;;;;;7.01;100.00;99720.69;6284894;22;20018;-76
2022/11/20 01:57:49;;;;;;;0.00;0.00;;;;;;;7.01;100.00;99709.81;6285587;22;19983;-76
2022/11/20 02:00:20;;;;;;;0.00;0.00;;;;;;;6.98;100.00;99703.03;6285137;22;19987;-76
2022/11/20 02:02:53;;;;;;;0.00;0.00;;;;;;;7.04;100.00;99696.53;6311599;22;20428;-76
2022/11/20 02:06:29;;;;;;;0.00;0.00;;;;;;;7.06;100.00;99677.25;6283523;22;20003;-77
2022/11/20 02:08:55;;;;;;;0.03;0.03;;;;;;;7.10;100.00;99679.19;6110224;23;20001;-77
2022/11/20 02:11:23;;;;;;;0.00;0.00;;;;;;;7.12;100.00;99673.47;6131139;23;20009;-76
2022/11/20 02:14:00;;;;;;;0.00;0.00;;;;;;;7.19;100.00;99673.25;6247977;22;20070;-76
2022/11/20 02:16:33;;;;;;;0.00;0.00;;;;;;;7.25;100.00;99666.78;6283734;22;20019;-76
2022/11/20 02:19:03;;;;;;;0.00;0.00;;;;;;;7.23;100.00;99664.31;6257940;22;20015;-76
2022/11/20 02:22:09;;;;;;;0.00;0.00;;;;;;;7.27;100.00;99659.16;6258012;22;20137;-76
2022/11/20 02:24:37;;;;;;;0.00;0.00;;;;;;;7.22;100.00;99640.09;6284430;22;20456;-76
2022/11/20 02:27:12;;;;;;;0.00;0.00;;;;;;;7.23;100.00;99641.72;6259077;22;20086;-75
2022/11/20 02:29:46;;;;;;;0.90;0.90;;;;;;;7.30;100.00;99647.75;6284359;22;20567;-76
2022/11/20 02:32:23;;;;;;;0.00;0.00;;;;;;;7.26;100.00;99643.94;6284206;22;20441;-75
2022/11/20 02:34:57;;;;;;;0.43;0.43;;;;;;;7.20;100.00;99636.81;6282554;22;20029;-75
2022/11/20 02:37:30;;;;;;;15.85;7.47;;;;;;;7.18;100.00;99644.44;6281841;22;20110;-76
2022/11/20 02:39:56;;;;;;;0.00;0.00;;;;;;;7.15;100.00;99633.00;6283369;22;19996;-78
2022/11/20 02:42:21;;;;;;;0.00;0.00;;;;;;;7.16;100.00;99631.91;6257904;22;20014;-76
2022/11/20 02:44:49;;;;;;;0.00;0.00;;;;;;;7.22;100.00;99623.78;6258285;22;20011;-77
2022/11/20 02:47:14;;;;;;;0.00;0.00;;;;;;;7.32;100.00;99623.84;6261584;22;20086;-75
2022/11/20 02:49:40;;;;;;;0.00;0.00;;;;;;;7.34;100.00;99627.09;6260838;22;20034;-77
2022/11/20 02:52:05;;;;;;;0.00;0.00;;;;;;;7.29;100.00;99614.31;6259952;22;20007;-78
2022/11/20 02:54:31;;;;;;;0.30;0.30;;;;;;;7.30;100.00;99606.94;6312946;22;20067;-77
2022/11/20 02:56:56;;;;;;;0.00;0.00;;;;;;;7.33;100.00;99606.44;6285185;22;20006;-76
2022/11/20 02:59:29;;;;;;;0.00;0.00;;;;;;;7.40;100.00;99604.28;6284816;22;20003;-75
2022/11/20 03:01:54;;;;;;;0.00;0.00;;;;;;;7.41;100.00;99595.03;6258571;22;20011;-75
2022/11/20 03:04:20;;;;;;;0.00;0.00;;;;;;;7.49;100.00;99600.00;6283938;22;20011;-75
2022/11/20 03:06:54;;;;;;;0.00;0.00;;;;;;;7.57;100.00;99595.13;6258794;22;20011;-77
2022/11/20 03:09:20;;;;;;;0.10;0.10;;;;;;;7.60;100.00;99587.22;6262010;22;20003;-76
2022/11/20 03:11:50;;;;;;;0.00;0.00;;;;;;;7.66;100.00;99579.91;6285281;22;20074;-77
2022/11/20 03:14:17;;;;;;;0.10;0.10;;;;;;;7.70;100.00;99572.84;6260236;22;20013;-77
2022/11/20 03:17:32;;;;;;;0.00;0.00;;;;;;;7.71;100.00;99557.31;6283891;22;20086;-75
2022/11/20 03:19:49;;;;;;;0.00;0.00;;;;;;;7.81;100.00;99562.78;6303674;22;20004;-75
2022/11/20 03:22:14;;;;;;;0.00;0.00;;;;;;;7.83;100.00;99553.28;6311560;22;19999;-76
2022/11/20 03:24:42;;;;;;;0.60;0.55;;;;;;;7.92;100.00;99556.28;6284346;22;20000;-76
2022/11/20 03:27:08;;;;;;;0.00;0.00;;;;;;;7.95;100.00;99546.78;6284586;22;20011;-77
2022/11/20 03:30:09;;;;;;;0.00;0.00;;;;;;;7.98;100.00;99544.31;6290343;22;20006;-78
2022/11/20 03:32:37;;;;;;;0.00;0.00;;;;;;;8.04;100.00;99547.88;6266037;22;20057;-76
2022/11/20 03:35:05;;;;;;;0.10;0.10;;;;;;;8.10;100.00;99551.41;6286828;22;20023;-75
2022/11/20 03:37:34;;;;;;;0.00;0.00;;;;;;;8.10;100.00;99535.88;6261433;22;20015;-77
2022/11/20 03:40:00;;;;;;;0.00;0.00;;;;;;;8.09;100.00;99531.53;6264183;22;20056;-77
2022/11/20 03:45:12;;;;;;;0.00;0.00;;;;;;;8.07;100.00;99514.66;6314566;22;20017;-77
2022/11/20 03:47:37;;;;;;;0.20;0.10;;;;;;;8.14;100.00;99515.19;6262903;22;20002;-77
2022/11/20 03:50:03;;;;;;;0.10;0.10;;;;;;;8.20;100.00;99519.53;6315187;22;19999;-77
2022/11/20 03:52:33;;;;;;;0.00;0.00;;;;;;;8.18;100.00;99521.72;6285957;22;20007;-77
2022/11/20 03:54:59;;;;;;;0.00;0.00;;;;;;;8.19;100.00;99506.19;6261282;22;20370;-78
2022/11/20 03:57:30;;;;;;;0.00;0.00;;;;;;;8.17;100.00;99500.22;6287854;22;19999;-78
2022/11/20 04:00:06;;;;;;;0.00;0.00;;;;;;;8.19;100.00;99496.16;6287799;22;19999;-78
2022/11/20 04:02:31;;;;;;;0.00;0.00;;;;;;;8.14;100.00;99482.50;6287329;22;20057;-78
2022/11/20 04:04:57;;;;;;;0.00;0.00;;;;;;;8.24;100.00;99486.34;6286366;22;20011;-78
2022/11/20 04:07:22;;;;;;;0.00;0.00;;;;;;;8.28;100.00;99487.41;6314176;22;19983;-76
2022/11/20 04:09:48;;;;;;;0.00;0.00;;;;;;;8.26;100.00;99484.16;6236424;22;20045;-78
2022/11/20 04:12:21;;;;;;;0.00;0.00;;;;;;;8.24;100.00;99470.81;6258332;22;20042;-75
2022/11/20 04:14:49;;;;;;;0.00;0.00;;;;;;;8.21;100.00;99466.72;6261949;22;20060;-79
2022/11/20 04:17:14;;;;;;;0.00;0.00;;;;;;;8.33;100.00;99479.25;6284165;22;20007;-77
2022/11/20 04:19:40;;;;;;;0.00;0.00;;;;;;;8.33;100.00;99468.34;6286309;22;20056;-77
2022/11/20 04:22:15;;;;;;;0.10;0.10;;;;;;;8.32;100.00;99463.97;6259721;22;20015;-78
2022/11/20 04:24:41;;;;;;;0.00;0.00;;;;;;;8.31;100.00;99448.72;6262603;22;20007;-78
2022/11/20 04:27:06;;;;;;;0.00;0.00;;;;;;;8.36;100.00;99456.91;6260188;22;20007;-78
2022/11/20 04:29:39;;;;;;;0.00;0.00;;;;;;;8.34;100.00;99453.66;6258657;22;20086;-77
2022/11/20 04:32:07;;;;;;;0.00;0.00;;;;;;;8.38;100.00;99446.53;6262106;22;20037;-77
2022/11/20 04:34:33;;;;;;;0.00;0.00;;;;;;;8.36;100.00;99440.56;6284211;22;20007;-77
2022/11/20 04:36:58;;;;;;;0.00;0.00;;;;;;;8.41;100.00;99465.06;6259799;22;20027;-77
2022/11/20 04:39:33;;;;;;;0.00;0.00;;;;;;;8.40;100.00;99512.47;6286797;22;20007;-76
2022/11/20 04:44:49;;;;;;;0.00;0.00;;;;;;;8.38;100.00;99492.84;6312265;22;20025;-77
2022/11/20 04:47:14;;;;;;;1.55;1.45;;;;;;;8.32;100.00;99473.00;6261311;22;20046;-76
2022/11/20 04:53:16;;;;;;;;;;;;;;;8.42;100.00;99468.59;6140212;23;20874;-77
2022/11/20 04:55:46;;;;;;;0.10;0.10;;;;;;;8.32;100.00;99453.09;6156748;23;19980;-76
2022/11/20 05:00:03;;;;;;;;;;;;;;;;;;;;;
2022/11/20 05:02:12;;;;;;;;;;;;;;;;;;;;;
2022/11/20 05:05:14;;;;;;;0.00;0.00;;;;;;;7.71;100.00;99460.19;6186616;23;20044;-77
2022/11/20 05:11:47;;;;;;;0.20;0.20;;;;;;;7.47;100.00;99460.69;6313073;22;20003;-77
2022/11/20 05:17:29;;;;;;;0.20;0.10;;;;;;;7.24;100.00;99463.88;6276726;22;20014;-75
2022/11/20 05:19:55;;;;;;;0.00;0.00;;;;;;;7.25;100.00;99471.78;6311695;22;20003;-78
2022/11/20 05:22:21;;;;;;;0.88;0.63;;;;;;;7.21;100.00;99469.88;6285112;22;20007;-75
2022/11/20 05:24:53;;;;;;;0.00;0.00;;;;;;;7.30;100.00;99473.69;6311167;22;20022;-77
2022/11/20 05:27:19;;;;;;;0.00;0.00;;;;;;;7.38;100.00;99475.91;6309699;22;20072;-78
2022/11/20 05:29:47;;;;;;;0.00;0.00;;;;;;;7.47;100.00;99474.28;6233022;22;20007;-77
2022/11/20 05:32:12;;;;;;;0.00;0.00;;;;;;;7.65;100.00;99492.03;6283340;22;20430;-77
2022/11/20 05:34:38;;;;;;;0.03;0.03;;;;;;;7.67;100.00;99486.31;6311922;22;20033;-77
2022/11/20 05:37:06;;;;;;;0.90;0.75;;;;;;;7.75;100.00;99496.66;6258558;22;20082;-76
2022/11/20 05:39:31;;;;;;;0.10;0.10;;;;;;;7.71;100.00;99483.84;6284574;22;20008;-77
2022/11/20 05:44:43;;;;;;;0.00;0.00;;;;;;;7.61;100.00;99492.84;6313284;22;20049;-76
2022/11/20 05:47:09;;;;;;;0.00;0.00;;;;;;;7.58;100.00;99491.47;6259225;22;20003;-77
2022/11/20 05:49:34;;;;;;;0.00;0.00;;;;;;;7.59;100.00;99505.88;6312828;22;19992;-75
2022/11/20 05:52:00;;;;;;;0.00;0.00;;;;;;;7.55;100.00;99505.59;6259569;22;20068;-77
2022/11/20 05:54:27;;;;;;;0.00;0.00;;;;;;;7.48;100.00;99499.59;6285618;22;19995;-77
2022/11/20 05:56:53;;;;;;;0.00;0.00;;;;;;;7.37;100.00;99509.63;6283026;22;20092;-76
2022/11/20 05:59:25;;;;;;;0.00;0.00;;;;;;;7.25;100.00;99500.88;6284592;22;20090;-75
2022/11/20 06:01:51;;;;;;;0.00;0.00;;;;;;;7.12;100.00;99505.72;6313305;22;20011;-75
2022/11/20 06:04:16;;;;;;;0.00;0.00;;;;;;;7.10;100.00;99529.66;6259940;22;20608;-74
2022/11/20 06:06:42;;;;;;;0.00;0.00;;;;;;;6.99;100.00;99517.06;6285578;22;19991;-76
2022/11/20 06:09:10;;;;;;;0.08;0.08;;;;;;;6.93;100.00;99526.28;6235076;22;20442;-75
2022/11/20 06:11:44;;;;;;;0.00;0.00;;;;;;;6.84;100.00;99517.81;6287061;22;20030;-76
2022/11/20 06:14:22;;;;;;;;;;;;;;;;;;;;;
2022/11/20 06:16:58;;;;;;;;;;;;;;;;;;;;;
2022/11/20 06:19:33;;;;;;;0.10;0.10;;;;;;;6.71;100.00;99526.44;6313024;22;20042;-76
2022/11/20 06:22:53;;;;;;;0.00;0.00;;;;;;;6.66;100.00;99529.13;6288376;22;20082;-76
2022/11/20 06:25:17;;;;;;;0.00;0.00;;;;;;;6.64;100.00;99532.09;6312913;22;20036;-75
2022/11/20 06:27:54;;;;;;;0.00;0.00;;;;;;;6.50;100.00;99520.88;6312861;22;20007;-76
2022/11/20 06:31:34;;;;;;;;;;;;;;;;;;;;;
2022/11/20 06:34:03;;;;;;;0.05;0.05;;;;;;;6.51;100.00;99538.78;6297661;22;20085;-75
2022/11/20 06:36:36;;;;;;;0.32;0.32;;;;;;;6.44;100.00;99539.03;6286487;22;20019;-76
2022/11/20 06:39:09;;;;;;;0.00;0.00;;;;;;;6.38;100.00;99540.09;6286251;22;20017;-76
2022/11/20 06:41:37;;;;;;;0.00;0.00;;;;;;;6.37;100.00;99535.72;6287723;22;20082;-76
2022/11/20 06:44:05;;;;;;;0.00;0.00;;;;;;;6.33;100.00;99540.03;6287350;22;20013;-76
2022/11/20 06:46:33;;;;;;;0.03;0.03;;;;;;;6.24;100.00;99541.59;6286541;22;20002;-75
2022/11/20 06:48:59;;;;;;;0.00;0.00;;;;;;;6.23;100.00;99545.38;6287661;22;20025;-75
2022/11/20 06:51:24;;;;;;;0.30;0.30;;;;;;;6.22;100.00;99551.88;6286364;22;20041;-76
2022/11/20 06:53:57;;;;;;;0.00;0.00;;;;;;;6.13;100.00;99542.56;6287002;22;20043;-77
2022/11/20 06:56:33;;;;;;;0.00;0.00;;;;;;;6.11;100.00;99546.34;6285485;22;19985;-75
2022/11/20 06:59:06;;;;;;;0.00;0.00;;;;;;;6.10;100.00;99555.59;6286410;22;20194;-74
2022/11/20 07:01:39;;;;;;;0.00;0.00;;;;;;;6.00;100.00;99538.38;6287606;22;20022;-75
2022/11/20 07:04:04;;;;;;;0.10;0.10;;;;;;;6.01;100.00;99546.25;6261694;22;20009;-77
2022/11/20 07:06:30;;;;;;;1.10;1.10;;;;;;;5.94;100.00;99534.78;6286984;22;20011;-76
2022/11/20 07:08:58;;;;;;;0.10;0.10;;;;;;;5.94;100.00;99545.63;6285944;22;19999;-76
2022/11/20 07:11:26;;;;;;;0.45;0.45;;;;;;;5.92;100.00;99554.03;6261004;22;20014;-75
2022/11/20 07:13:59;;;;;;;0.32;0.32;;;;;;;5.93;100.00;99550.25;6312025;22;20030;-75
2022/11/20 07:16:24;;;;;;;0.00;0.00;;;;;;;5.94;100.00;99551.88;6286096;22;20038;-76
2022/11/20 07:18:52;;;;;;;0.00;0.00;;;;;;;5.95;100.00;99558.94;6261670;22;20003;-77
2022/11/20 07:21:20;;;;;;;0.47;0.47;;;;;;;5.90;100.00;99544.53;6261256;22;20004;-76
2022/11/20 07:23:48;;;;;;;1.27;1.17;;;;;;;5.96;100.00;99551.63;6312809;22;20003;-74
2022/11/20 07:26:13;;;;;;;0.10;0.10;;;;;;;5.98;100.00;99545.97;6286887;22;20380;-73
2022/11/20 07:28:49;;;;;;;;;;;;;;;;;;;;;
2022/11/20 07:31:15;;;;;;;0.00;0.00;;;;;;;5.87;100.00;99545.00;6314599;22;20023;-77
2022/11/20 07:34:14;;;;;;;0.05;0.05;;;;;;;5.82;100.00;99553.91;6286731;22;20368;-77
2022/11/20 07:36:47;;;;;;;0.00;0.00;;;;;;;5.81;100.00;99562.31;6274454;22;20015;-77
2022/11/20 07:39:15;;;;;;;0.05;0.05;;;;;;;5.85;100.00;99574.31;6313388;22;20003;-78
2022/11/20 07:41:41;;;;;;;0.25;0.25;;;;;;;5.78;100.00;99569.06;6262618;22;20014;-78
2022/11/20 07:44:06;;;;;;;0.40;0.40;;;;;;;5.69;100.00;99560.56;6288751;22;20004;-79
2022/11/20 07:47:13;;;;;;;;;;;;;;;;;;;;;
2022/11/20 08:38:33;;;;;;;0.43;0.43;;;;;;;7.13;100.00;99648.75;5797743;24;20118;-77
2022/11/20 08:41:33;;;;;;;;;;;;;;;7.40;100.00;99677.72;5824177;24;20022;-76
2022/11/20 08:44:44;;;;;;;;;;;;;;;;;;;;;
2022/11/20 08:48:15;;;;;;;;;;;;;;;;;;;;;
2022/11/20 08:50:47;;;;;;;0.00;0.00;;;;;;;7.66;100.00;99664.25;5940266;23;20624;-78
2022/11/20 08:54:24;;;;;;;;;;;;;;;;;;;;;
2022/11/20 08:57:21;;;;;;;;;;;;;;;;;;;;;
2022/11/20 09:09:53;;;;;;;0.10;0.10;;;;;;;7.71;100.00;99677.91;6052864;23;20042;-78
2022/11/20 09:13:01;;;;;;;;;;;;;;;;;;;;;
2022/11/20 09:15:33;;;;;;;0.00;0.00;;;;;;;8.21;100.00;99678.34;6254015;22;20039;-80
2022/11/20 09:18:01;;;;;;;0.00;0.00;;;;;;;8.49;100.00;99685.25;6233472;22;20473;-78
2022/11/20 09:20:28;;;;;;;0.00;0.00;;;;;;;8.58;100.00;99687.44;6260020;22;20031;-78
2022/11/20 09:23:25;;;;;;;;;;;;;;;;;;;;;
2022/11/20 09:25:53;;;;;;;0.00;0.00;;;;;;;8.97;100.00;99681.47;6283278;22;20027;-79
2022/11/20 09:36:24;;;;;;;;;;;;;;;;;;;;;
2022/11/20 09:39:00;;;;;;;0.10;0.03;;;;;;;9.36;100.00;99699.94;6271943;22;20011;-79
2022/11/20 09:45:43;;;;;;;0.22;0.22;;;;;;;11.11;100.00;99701.81;6065611;23;20018;-78
2022/11/20 09:48:26;;;;;;;0.10;0.10;;;;;;;13.63;100.00;99695.63;6108583;23;20006;-79
2022/11/20 09:51:27;;;;;;;;;;;;;;;;;;;;;
2022/11/20 09:53:59;;;;;;;0.00;0.00;;;;;;;19.17;100.00;99720.69;6234234;22;20031;-76
2022/11/20 09:56:25;;;;;;;0.00;0.00;;;;;;;21.20;100.00;99727.91;6256149;22;20007;-75
2022/11/20 09:58:54;;;;;;;0.00;0.00;;;;;;;22.81;100.00;99724.69;6257935;22;20004;-76
2022/11/20 10:01:28;;;;;;;0.00;0.00;;;;;;;23.53;100.00;99721.34;6258768;22;20008;-76
2022/11/20 10:03:56;;;;;;;;;;;;;;;24.09;100.00;99724.69;6286545;22;20010;-77
2022/11/20 10:06:29;;;;;;;0.15;0.15;;;;;;;24.36;100.00;99710.72;6256912;22;19906;-73
2022/11/20 10:09:09;;;;;;;0.00;0.00;;;;;;;23.02;100.00;99718.75;6281010;22;19984;-75
2022/11/20 10:11:57;;;;;;;0.10;0.05;;;;;;;20.70;100.00;99719.75;6256023;22;20478;-74
2022/11/20 10:14:25;;;;;;;0.00;0.00;;;;;;;20.24;100.00;99710.78;6280667;22;20004;-73
2022/11/20 10:17:09;;;;;;;0.00;0.00;;;;;;;20.26;100.00;99708.47;6253968;22;20454;-73
2022/11/20 10:19:52;;;;;;;0.00;0.00;;;;;;;22.22;100.00;99710.63;6252791;22;20466;-74
2022/11/20 10:22:27;;;;;;;2.17;2.08;;;;;;;23.55;100.00;99709.00;6253139;22;20082;-73
2022/11/20 10:25:02;;;;;;;0.00;0.00;;;;;;;24.53;97.85;99710.19;6280987;22;19999;-76
2022/11/20 10:27:47;;;;;;;0.00;0.00;;;;;;;24.18;92.87;99716.84;6253797;22;20062;-74
2022/11/20 10:30:15;;;;;;;0.00;0.00;;;;;;;23.23;96.90;99712.81;6254183;22;20008;-75
2022/11/20 10:32:51;;;;;;;0.00;0.00;;;;;;;22.34;100.00;99712.53;6253317;22;20038;-75
2022/11/20 10:35:48;;;;;;;0.00;0.00;;;;;;;22.05;100.00;99717.41;6278936;22;20414;-75
2022/11/20 10:38:31;;;;;;;0.00;0.00;;;;;;;22.37;100.00;99714.59;6253385;22;20000;-74
2022/11/20 10:46:39;;;;;;;0.22;0.22;;;;;;;22.86;100.00;99712.44;6292689;22;20011;-77
2022/11/20 10:49:15;;;;;;;0.30;0.22;;;;;;;24.96;94.38;99703.56;6316039;22;20093;-80
2022/11/20 10:51:49;;;;;;;0.00;0.00;;;;;;;26.60;92.58;99717.38;6287839;22;20011;-79
2022/11/20 10:54:38;;;;;;;;;;;;;;;27.52;86.21;99711.72;6287338;22;19999;-75
2022/11/20 10:57:18;;;;;;;0.00;0.00;;;;;;;27.66;81.57;99717.38;6286817;22;19936;-78
2022/11/20 10:59:46;;;;;;;0.00;0.00;;;;;;;27.95;87.20;99723.00;6311047;22;19991;-77
2022/11/20 11:02:36;;;;;;;0.00;0.00;;;;;;;28.43;84.61;99729.38;6285184;22;20378;-77
2022/11/20 11:05:13;;;;;;;0.00;0.00;;;;;;;29.19;85.20;99725.13;6267168;22;19999;-76
2022/11/20 11:07:40;;;;;;;0.00;0.00;;;;;;;29.41;81.06;99728.63;6310821;22;20123;-76
2022/11/20 11:10:17;;;;;;;0.00;0.00;;;;;;;29.35;80.82;99730.28;6258865;22;20058;-75
2022/11/20 11:12:49;;;;;;;0.00;0.00;;;;;;;28.61;80.95;99733.00;6310917;22;19999;-74
2022/11/20 11:15:41;;;;;;;0.35;0.35;;;;;;;28.67;79.93;99734.16;6258197;22;20152;-76
2022/11/20 11:18:11;;;;;;;0.00;0.00;;;;;;;28.15;80.37;99731.84;6283293;22;20052;-76
2022/11/20 11:20:37;;;;;;;0.00;0.00;;;;;;;28.63;81.71;99733.38;6283913;22;20354;-76
2022/11/20 11:23:04;;;;;;;0.10;0.10;;;;;;;27.82;77.44;99736.63;6310600;22;20001;-77
2022/11/20 11:25:33;;;;;;;1.55;1.00;;;;;;;26.69;72.58;99739.50;6310232;22;20065;-75
2022/11/20 11:28:25;;;;;;;0.00;0.00;;;;;;;26.40;87.44;99733.72;6283610;22;20003;-75
2022/11/20 11:30:51;;;;;;;0.00;0.00;;;;;;;26.40;76.93;99739.31;6282063;22;20007;-75
2022/11/20 11:33:23;;;;;;;0.00;0.00;;;;;;;25.02;77.90;99732.78;6282390;22;20012;-76
2022/11/20 11:36:00;;;;;;;1.08;0.90;;;;;;;24.99;82.73;99736.34;6308004;22;19999;-75
2022/11/20 11:38:45;;;;;;;4.55;1.35;;;;;;;24.46;79.92;99735.22;6307841;22;20169;-74
2022/11/20 11:41:22;;;;;;;0.10;0.10;;;;;;;25.69;87.85;99739.53;6282620;22;20433;-75
2022/11/20 11:46:40;;;;;;;0.52;0.43;;;;;;;24.16;78.91;99729.59;6296466;22;20733;-76
2022/11/20 11:49:05;;;;;;;0.00;0.00;;;;;;;22.94;91.88;99731.75;6294532;22;20003;-75
2022/11/20 11:51:34;;;;;;;0.38;0.38;;;;;;;22.81;85.22;99719.91;6283573;22;20569;-77
2022/11/20 11:54:25;;;;;;;8.82;6.60;;;;;;;23.91;94.89;99706.84;6306717;22;20413;-75
2022/11/20 11:56:51;;;;;;;0.00;0.00;;;;;;;25.78;82.21;99715.59;6308688;22;20342;-76
2022/11/20 11:59:28;;;;;;;1.10;1.10;;;;;;;26.13;84.32;99710.69;6310693;22;20004;-76
2022/11/20 12:02:13;;;;;;;0.00;0.00;;;;;;;26.53;79.71;99700.53;6283125;22;20085;-79
2022/11/20 12:04:54;;;;;;;0.10;0.10;;;;;;;23.22;81.06;99704.81;6310785;22;20051;-77
2022/11/20 12:07:47;;;;;;;0.00;0.00;;;;;;;20.89;89.50;99696.06;6284223;22;20003;-77
2022/11/20 12:10:30;;;;;;;0.35;0.32;;;;;;;19.31;97.26;99700.19;6311693;22;19998;-77
2022/11/20 12:13:02;;;;;;;0.03;0.03;;;;;;;17.72;92.83;99707.16;6282835;22;20006;-77
2022/11/20 12:15:34;;;;;;;0.00;0.00;;;;;;;16.66;100.00;99706.50;6283757;22;20933;-75
2022/11/20 12:18:00;;;;;;;0.65;0.30;;;;;;;18.14;100.00;99701.75;6282853;22;20535;-77
2022/11/20 12:20:39;;;;;;;0.17;0.17;;;;;;;19.53;100.00;99702.53;6311048;22;20437;-75
2022/11/20 12:23:49;;;;;;;0.00;0.00;;;;;;;21.21;100.00;99708.06;6281474;22;20528;-73
2022/11/20 12:26:44;;;;;;;0.10;0.10;;;;;;;23.11;90.08;99708.19;6281899;22;19999;-75
2022/11/20 12:29:18;;;;;;;0.00;0.00;;;;;;;21.37;78.97;99705.31;6281883;22;20003;-75
2022/11/20 12:32:04;;;;;;;;;;;;;;;18.88;82.79;99695.88;6307900;22;20018;-75
2022/11/20 12:34:32;;;;;;;;;;;;;;;17.07;98.24;99688.63;6281417;22;19903;-75
2022/11/20 12:37:14;;;;;;;0.00;0.00;;;;;;;16.10;100.00;99677.88;6281745;22;20068;-76
2022/11/20 12:39:50;;;;;;;0.20;0.20;;;;;;;15.14;100.00;99675.50;6282417;22;20061;-77
2022/11/20 12:45:57;;;;;;;0.40;0.40;;;;;;;13.66;100.00;99658.50;6309045;22;20033;-75
2022/11/20 12:48:31;;;;;;;0.65;0.65;;;;;;;13.36;100.00;99661.53;6282209;22;20090;-79
2022/11/20 12:51:15;;;;;;;0.00;0.00;;;;;;;13.19;100.00;99658.53;6284463;22;20009;-78
2022/11/20 12:53:59;;;;;;;1.75;0.70;;;;;;;13.30;100.00;99643.47;6284161;22;20018;-76
2022/11/20 12:56:53;;;;;;;0.10;0.10;;;;;;;13.30;100.00;99632.47;6311509;22;20006;-77
2022/11/20 13:13:05;;;;;;;0.00;0.00;;;;;;;12.84;100.00;99603.16;6272469;22;20022;-80
2022/11/20 13:15:48;;;;;;;0.00;0.00;;;;;;;13.70;100.00;99588.88;6257134;22;20030;-80
2022/11/20 13:18:14;;;;;;;0.00;0.00;;;;;;;19.08;100.00;99588.94;6287580;22;20011;-80
2022/11/20 13:20:47;;;;;;;0.00;0.00;;;;;;;22.90;93.00;99596.25;6289379;22;19996;-79
2022/11/20 13:23:45;;;;;;;0.00;0.00;;;;;;;24.67;83.41;99608.94;6288328;22;20379;-80
2022/11/20 13:26:23;;;;;;;0.00;0.00;;;;;;;25.73;74.24;99622.75;6286866;22;20007;-82
2022/11/20 13:29:39;;;;;;;;;;;;;;;;;;;;;
2022/11/20 13:32:49;;;;;;;0.57;0.57;;;;;;;27.08;73.68;99637.06;6315698;22;20094;-81
2022/11/20 13:35:32;;;;;;;0.00;0.00;;;;;;;26.51;77.24;99623.66;6134990;23;20024;-81
2022/11/20 13:38:08;;;;;;;0.00;0.00;;;;;;;26.79;74.43;99636.97;6269622;22;20304;-80
2022/11/20 13:40:50;;;;;;;0.00;0.00;;;;;;;27.11;76.63;99636.25;6312906;22;19999;-82
2022/11/20 13:43:39;;;;;;;0.00;0.00;;;;;;;26.44;65.60;99635.63;6287727;22;20019;-79
2022/11/20 13:46:17;;;;;;;0.00;0.00;;;;;;;22.99;76.42;99635.84;6288637;22;20038;-79
2022/11/20 13:48:45;;;;;;;0.00;0.00;;;;;;;19.71;80.45;99635.75;6252537;22;20363;-81
2022/11/20 13:51:36;;;;;;;0.00;0.00;;;;;;;17.51;80.38;99637.94;6284867;22;20102;-80
2022/11/20 13:54:43;;;;;;;0.00;0.00;;;;;;;16.10;88.66;99651.09;6287979;22;20045;-80
2022/11/20 13:57:27;;;;;;;0.13;0.13;;;;;;;15.83;90.73;99630.94;6266188;22;20007;-80
2022/11/20 14:00:18;;;;;;;0.00;0.00;;;;;;;15.41;84.82;99651.69;6287445;22;20007;-82
2022/11/20 14:03:23;;;;;;;0.00;0.00;;;;;;;14.76;87.84;99638.19;6313583;22;20034;-81
2022/11/20 14:05:59;;;;;;;0.00;0.00;;;;;;;13.71;86.62;99628.16;6280935;22;20023;-80
2022/11/20 14:08:43;;;;;;;0.00;0.00;;;;;;;13.36;97.02;99605.78;6312864;22;20042;-81
2022/11/20 14:11:20;;;;;;;0.08;0.08;;;;;;;15.27;86.82;99643.50;6284058;22;20057;-81
2022/11/20 14:13:58;;;;;;;6.13;3.42;;;;;;;14.84;87.49;99620.91;6286774;22;20014;-80
2022/11/20 14:16:25;;;;;;;0.00;0.00;;;;;;;16.63;91.47;99618.00;6312910;22;19999;-78
2022/11/20 14:18:50;;;;;;;0.38;0.25;;;;;;;18.67;75.32;99619.13;6286139;22;20003;-78
2022/11/20 14:21:44;;;;;;;0.10;0.10;;;;;;;19.34;75.30;99614.34;6258415;22;20027;-78
2022/11/20 14:24:21;;;;;;;0.00;0.00;;;;;;;20.25;65.93;99618.00;6279849;22;20017;-77
2022/11/20 14:26:47;;;;;;;0.08;0.08;;;;;;;21.26;72.66;99631.94;6284825;22;20120;-77
2022/11/20 14:29:18;;;;;;;0.00;0.00;;;;;;;22.60;80.73;99630.31;6286411;22;20003;-79
2022/11/20 14:31:58;;;;;;;0.10;0.10;;;;;;;22.80;70.22;99629.13;6310336;22;20003;-79
2022/11/20 14:34:52;;;;;;;1.10;1.10;;;;;;;23.16;78.42;99617.88;6286788;22;20003;-78